createdAt,value
2023-05-06T00:01:36.433Z,2.60
2023-05-06T00:04:03.053Z,2.60
2023-05-06T00:06:29.764Z,2.53
2023-05-06T00:08:56.238Z,2.07
2023-05-06T00:11:22.737Z,2.37
2023-05-06T00:13:49.289Z,2.50
2023-05-06T00:16:15.788Z,2.00
2023-05-06T00:18:42.374Z,2.17
2023-05-06T00:21:08.835Z,2.40
2023-05-06T00:23:35.376Z,2.60
2023-05-06T00:26:01.876Z,2.20
2023-05-06T00:28:28.366Z,2.77
2023-05-06T00:30:54.797Z,2.60
2023-05-06T00:33:21.407Z,2.60
2023-05-06T00:35:48.357Z,2.60
2023-05-06T00:38:17.759Z,2.43
2023-05-06T00:40:44.293Z,2.47
2023-05-06T00:43:11.138Z,2.30
2023-05-06T00:45:38.358Z,2.23
2023-05-06T00:48:06.386Z,2.43
2023-05-06T00:50:33.732Z,2.60
2023-05-06T00:53:02.957Z,2.87
2023-05-06T00:55:30.569Z,2.80
2023-05-06T00:57:57.287Z,3.10
2023-05-06T01:00:23.803Z,2.70
2023-05-06T01:02:51.165Z,2.77
2023-05-06T01:05:19.137Z,3.20
2023-05-06T01:07:51.632Z,2.90
2023-05-06T01:10:34.514Z,2.97
2023-05-06T01:13:15.371Z,3.10
2023-05-06T01:15:47.047Z,3.37
2023-05-06T01:18:17.073Z,2.90
2023-05-06T01:20:52.587Z,2.70
2023-05-06T01:23:20.470Z,2.93
2023-05-06T01:25:46.973Z,2.90
2023-05-06T01:28:14.098Z,3.40
2023-05-06T01:30:55.407Z,3.73
2023-05-06T01:33:27.752Z,3.60
2023-05-06T01:36:08.849Z,3.57
2023-05-06T01:38:44.713Z,3.97
2023-05-06T01:41:15.459Z,3.07
2023-05-06T01:43:44.166Z,3.67
2023-05-06T01:46:21.935Z,3.30
2023-05-06T01:48:54.009Z,4.20
2023-05-06T01:51:22.970Z,3.83
2023-05-06T01:53:49.639Z,4.50
2023-05-06T01:56:16.569Z,3.70
2023-05-06T01:58:43.061Z,4.13
2023-05-06T02:01:09.531Z,3.43
2023-05-06T02:03:37.329Z,4.13
2023-05-06T02:06:04.716Z,4.03
2023-05-06T02:08:35.692Z,4.30
2023-05-06T02:11:03.337Z,4.60
2023-05-06T02:13:31.180Z,4.47
2023-05-06T02:15:57.761Z,3.90
2023-05-06T02:18:25.356Z,4.93
2023-05-06T02:20:51.856Z,4.00
2023-05-06T02:23:18.404Z,4.60
2023-05-06T02:25:46.469Z,4.57
2023-05-06T02:28:12.901Z,4.70
2023-05-06T02:30:39.366Z,5.27
2023-05-06T02:33:06.184Z,5.30
2023-05-06T02:35:32.655Z,5.10
2023-05-06T02:37:59.324Z,5.10
2023-05-06T02:40:26.819Z,4.83
2023-05-06T02:42:53.297Z,5.57
2023-05-06T02:45:19.871Z,5.90
2023-05-06T02:47:46.413Z,6.07
2023-05-06T02:50:12.936Z,6.43
2023-05-06T02:52:39.493Z,5.93
2023-05-06T02:55:06.875Z,6.43
2023-05-06T02:57:33.459Z,6.30
2023-05-06T02:59:59.937Z,6.17
2023-05-06T03:02:26.464Z,6.13
2023-05-06T03:04:53.273Z,6.67
2023-05-06T03:07:20.014Z,5.80
2023-05-06T03:09:46.471Z,7.53
2023-05-06T03:12:13.594Z,6.27
2023-05-06T03:14:40.330Z,5.50
2023-05-06T03:17:06.771Z,6.10
2023-05-06T03:19:36.242Z,7.40
2023-05-06T03:22:03.384Z,6.10
2023-05-06T03:24:32.657Z,6.50
2023-05-06T03:26:59.396Z,6.63
2023-05-06T03:29:27.862Z,6.67
2023-05-06T03:31:57.500Z,6.50
2023-05-06T03:34:25.869Z,6.57
2023-05-06T03:36:52.394Z,6.87
2023-05-06T03:39:18.851Z,6.50
2023-05-06T03:41:45.602Z,6.60
2023-05-06T03:44:12.272Z,6.13
2023-05-06T03:46:40.204Z,7.00
2023-05-06T03:49:06.859Z,6.03
2023-05-06T03:51:33.570Z,6.43
2023-05-06T03:54:00.295Z,6.83
2023-05-06T03:56:26.876Z,5.93
2023-05-06T03:58:55.411Z,5.93
2023-05-06T04:01:23.964Z,6.80
2023-05-06T04:03:51.994Z,6.80
2023-05-06T04:06:18.704Z,6.50
2023-05-06T04:08:45.298Z,6.10
2023-05-06T04:11:12.026Z,5.90
2023-05-06T04:13:38.617Z,6.50
2023-05-06T04:16:10.894Z,6.50
2023-05-06T04:18:41.026Z,6.60
2023-05-06T04:21:12.203Z,6.47
2023-05-06T04:23:41.500Z,6.77
2023-05-06T04:26:09.244Z,6.10
2023-05-06T04:28:38.799Z,6.93
2023-05-06T04:31:08.422Z,6.63
2023-05-06T04:33:41.215Z,6.53
2023-05-06T04:36:11.475Z,7.73
2023-05-06T04:38:42.024Z,9.40
2023-05-06T04:41:10.182Z,7.20
2023-05-06T04:43:36.972Z,8.00
2023-05-06T04:46:10.666Z,7.77
2023-05-06T04:48:39.140Z,8.30
2023-05-06T04:51:07.872Z,8.50
2023-05-06T04:53:35.723Z,8.10
2023-05-06T04:56:02.403Z,8.83
2023-05-06T04:58:30.196Z,10.13
2023-05-06T05:00:57.994Z,10.00
2023-05-06T05:03:25.418Z,10.80
2023-05-06T05:05:54.318Z,9.73
2023-05-06T05:08:21.370Z,10.67
2023-05-06T05:10:48.163Z,10.43
2023-05-06T05:13:19.859Z,11.00
2023-05-06T05:15:46.968Z,11.20
2023-05-06T05:18:14.998Z,11.60
2023-05-06T05:20:42.645Z,12.33
2023-05-06T05:23:11.666Z,12.77
2023-05-06T05:25:38.346Z,12.00
2023-05-06T05:28:05.255Z,11.53
2023-05-06T05:30:32.903Z,11.77
2023-05-06T05:33:00.516Z,10.87
2023-05-06T05:35:27.084Z,11.47
2023-05-06T05:37:54.521Z,10.20
2023-05-06T05:40:21.423Z,10.97
2023-05-06T05:42:51.296Z,11.13
2023-05-06T05:45:24.380Z,11.80
2023-05-06T05:47:53.710Z,11.07
2023-05-06T05:50:21.315Z,10.87
2023-05-06T05:52:48.358Z,10.40
2023-05-06T05:55:15.262Z,9.50
2023-05-06T05:57:44.725Z,12.40
2023-05-06T06:00:13.593Z,10.90
2023-05-06T06:02:46.393Z,10.37
2023-05-06T06:05:17.373Z,11.07
2023-05-06T06:07:43.859Z,10.83
2023-05-06T06:10:10.563Z,11.13
2023-05-06T06:12:37.445Z,10.50
2023-05-06T06:15:05.076Z,11.17
2023-05-06T06:17:32.160Z,12.87
2023-05-06T06:19:59.380Z,12.20
2023-05-06T06:22:26.345Z,11.00
2023-05-06T06:24:54.002Z,11.33
2023-05-06T06:27:20.473Z,10.57
2023-05-06T06:29:49.086Z,10.40
2023-05-06T06:32:15.764Z,11.60
2023-05-06T06:34:42.211Z,10.73
2023-05-06T06:37:12.012Z,11.43
2023-05-06T06:39:38.520Z,12.70
2023-05-06T06:42:06.790Z,13.23
2023-05-06T06:44:45.878Z,10.77
2023-05-06T06:47:12.353Z,12.50
2023-05-06T06:49:40.237Z,11.77
2023-05-06T06:52:06.732Z,14.00
2023-05-06T06:54:33.252Z,11.53
2023-05-06T06:57:00.105Z,12.80
2023-05-06T06:59:26.639Z,14.10
2023-05-06T07:01:53.051Z,11.90
2023-05-06T07:04:19.628Z,15.00
2023-05-06T07:06:46.405Z,11.50
2023-05-06T07:09:13.354Z,13.20
2023-05-06T07:11:39.814Z,13.70
2023-05-06T07:14:07.074Z,11.70
2023-05-06T07:16:33.694Z,11.37
2023-05-06T07:19:01.167Z,12.83
2023-05-06T07:21:27.852Z,12.20
2023-05-06T07:23:54.397Z,11.00
2023-05-06T07:26:21.334Z,11.13
2023-05-06T07:28:47.805Z,11.50
2023-05-06T07:31:16.007Z,13.30
2023-05-06T07:33:42.555Z,12.47
2023-05-06T07:36:09.108Z,10.37
2023-05-06T07:38:35.615Z,11.90
2023-05-06T07:41:02.169Z,12.40
2023-05-06T07:43:28.615Z,12.60
2023-05-06T07:46:02.401Z,12.50
2023-05-06T07:48:29.935Z,11.20
2023-05-06T07:50:57.032Z,13.43
2023-05-06T07:53:23.477Z,11.40
2023-05-06T07:55:50.116Z,11.50
2023-05-06T07:58:16.947Z,10.67
2023-05-06T08:00:43.376Z,10.73
2023-05-06T08:03:09.973Z,11.10
2023-05-06T08:05:36.511Z,11.70
2023-05-06T08:08:02.968Z,11.30
2023-05-06T08:10:29.490Z,11.57
2023-05-06T08:12:55.979Z,11.90
2023-05-06T08:15:22.457Z,11.90
2023-05-06T08:17:48.977Z,11.97
2023-05-06T08:20:15.499Z,11.70
2023-05-06T08:22:42.034Z,13.57
2023-05-06T08:25:09.064Z,13.30
2023-05-06T08:27:36.162Z,12.53
2023-05-06T08:30:02.637Z,12.63
2023-05-06T08:32:29.152Z,11.70
2023-05-06T08:34:56.027Z,12.30
2023-05-06T08:37:22.487Z,11.73
2023-05-06T08:39:48.929Z,12.40
2023-05-06T08:42:15.494Z,13.17
2023-05-06T08:44:43.241Z,12.83
2023-05-06T08:47:10.166Z,12.33
2023-05-06T08:49:36.633Z,13.27
2023-05-06T08:52:04.871Z,12.90
2023-05-06T08:54:33.828Z,13.20
2023-05-06T08:57:03.999Z,13.20
2023-05-06T08:59:32.680Z,13.20
2023-05-06T09:02:03.092Z,12.70
2023-05-06T09:04:30.079Z,12.47
2023-05-06T09:06:58.330Z,12.77
2023-05-06T09:09:25.311Z,12.83
2023-05-06T09:11:57.297Z,12.13
2023-05-06T09:14:23.997Z,12.30
2023-05-06T09:16:51.610Z,12.80
2023-05-06T09:19:19.587Z,10.90
2023-05-06T09:21:48.081Z,12.30
2023-05-06T09:24:15.619Z,13.40
2023-05-06T09:26:44.692Z,11.90
2023-05-06T09:29:11.130Z,11.80
2023-05-06T09:31:44.390Z,10.80
2023-05-06T09:34:11.631Z,11.50
2023-05-06T09:36:38.167Z,10.80
2023-05-06T09:39:05.287Z,11.00
2023-05-06T09:41:32.163Z,9.97
2023-05-06T09:43:59.342Z,9.37
2023-05-06T09:46:27.986Z,10.23
2023-05-06T09:48:56.378Z,8.73
2023-05-06T09:51:22.827Z,9.40
2023-05-06T09:53:49.472Z,7.70
2023-05-06T09:56:16.284Z,7.90
2023-05-06T09:58:43.242Z,6.20
2023-05-06T10:01:11.258Z,6.67
2023-05-06T10:03:39.759Z,6.00
2023-05-06T10:06:06.713Z,6.13
2023-05-06T10:08:33.910Z,5.80
2023-05-06T10:11:05.061Z,5.50
2023-05-06T10:13:31.501Z,5.70
2023-05-06T10:15:59.957Z,6.70
2023-05-06T10:18:26.665Z,5.50
2023-05-06T10:20:55.281Z,5.00
2023-05-06T10:23:30.323Z,5.23
2023-05-06T10:25:57.898Z,5.17
2023-05-06T10:28:30.345Z,6.23
2023-05-06T10:30:58.903Z,6.40
2023-05-06T10:33:26.208Z,6.57
2023-05-06T10:36:20.200Z,6.00
2023-05-06T10:38:50.294Z,6.80
2023-05-06T10:41:16.996Z,6.67
2023-05-06T10:43:44.094Z,5.90
2023-05-06T10:46:15.630Z,6.67
2023-05-06T10:49:11.029Z,5.90
2023-05-06T10:51:41.984Z,6.27
2023-05-06T10:54:21.846Z,6.17
2023-05-06T10:56:48.286Z,6.50
2023-05-06T10:59:14.785Z,5.20
2023-05-06T11:01:44.867Z,4.47
2023-05-06T11:04:15.920Z,4.57
2023-05-06T11:06:46.236Z,4.63
2023-05-06T11:09:27.956Z,4.87
2023-05-06T11:12:03.139Z,4.83
2023-05-06T11:14:36.922Z,4.63
2023-05-06T11:17:05.836Z,5.33
2023-05-06T11:19:36.643Z,4.90
2023-05-06T11:22:05.440Z,4.60
2023-05-06T11:24:42.987Z,4.77
2023-05-06T11:27:10.819Z,4.57
2023-05-06T11:29:37.692Z,5.17
2023-05-06T11:32:05.946Z,5.63
2023-05-06T11:34:33.324Z,4.73
2023-05-06T11:37:09.557Z,5.43
2023-05-06T11:39:40.498Z,5.57
2023-05-06T11:42:08.593Z,5.40
2023-05-06T11:44:39.116Z,5.40
2023-05-06T11:47:07.654Z,5.67
2023-05-06T11:49:38.680Z,4.90
2023-05-06T11:52:05.852Z,4.80
2023-05-06T11:54:38.131Z,5.17
2023-05-06T11:57:05.192Z,6.43
2023-05-06T11:59:37.407Z,5.13
2023-05-06T12:02:09.039Z,5.10
2023-05-06T12:04:43.614Z,4.70
2023-05-06T12:07:15.162Z,3.90
2023-05-06T12:09:43.640Z,3.60
2023-05-06T12:12:10.771Z,4.57
2023-05-06T12:14:38.310Z,4.93
2023-05-06T12:17:05.318Z,4.30
2023-05-06T12:19:32.198Z,4.73
2023-05-06T12:22:26.665Z,4.50
2023-05-06T12:24:53.182Z,4.80
2023-05-06T12:27:33.097Z,3.67
2023-05-06T12:30:00.499Z,3.80
2023-05-06T12:32:27.103Z,3.10
2023-05-06T12:34:54.072Z,2.67
2023-05-06T12:37:28.103Z,2.43
2023-05-06T12:39:57.018Z,3.67
2023-05-06T12:42:25.238Z,2.80
2023-05-06T12:44:51.697Z,2.40
2023-05-06T12:47:22.116Z,3.30
2023-05-06T12:49:51.043Z,2.43
2023-05-06T12:52:19.214Z,2.67
2023-05-06T12:54:45.937Z,3.00
2023-05-06T12:57:12.523Z,2.63
2023-05-06T12:59:39.006Z,2.27
2023-05-06T13:02:06.550Z,3.00
2023-05-06T13:04:33.052Z,2.53
2023-05-06T13:06:59.592Z,2.60
2023-05-06T13:09:26.302Z,2.70
2023-05-06T13:11:53.360Z,2.23
2023-05-06T13:14:20.849Z,2.00
2023-05-06T13:16:47.797Z,2.57
2023-05-06T13:19:30.769Z,2.40
2023-05-06T13:22:00.614Z,1.80
2023-05-06T13:24:27.426Z,2.30
2023-05-06T13:26:56.384Z,1.80
2023-05-06T13:29:23.886Z,1.80
2023-05-06T13:31:50.947Z,4.10
2023-05-06T13:34:17.551Z,2.00
2023-05-06T13:36:44.045Z,1.70
2023-05-06T13:39:10.541Z,2.10
2023-05-06T13:41:37.042Z,1.67
2023-05-06T13:44:03.616Z,2.10
2023-05-06T13:46:30.974Z,2.20
2023-05-06T13:48:57.670Z,1.83
2023-05-06T13:51:27.436Z,2.30
2023-05-06T13:53:54.032Z,1.90
2023-05-06T13:56:21.467Z,2.00
2023-05-06T13:58:47.962Z,1.80
2023-05-06T14:01:15.043Z,2.20
2023-05-06T14:03:41.623Z,1.87
2023-05-06T14:06:09.180Z,2.00
2023-05-06T14:08:35.707Z,2.43
2023-05-06T14:11:02.185Z,2.30
2023-05-06T14:13:31.319Z,2.37
2023-05-06T14:15:58.335Z,2.90
2023-05-06T14:18:26.609Z,2.30
2023-05-06T14:20:53.646Z,2.50
2023-05-06T14:23:20.264Z,2.00
2023-05-06T14:25:47.135Z,2.10
2023-05-06T14:28:14.304Z,2.27
2023-05-06T14:30:41.154Z,2.40
2023-05-06T14:33:08.995Z,2.40
2023-05-06T14:35:35.584Z,2.23
2023-05-06T14:38:02.065Z,1.90
2023-05-06T14:40:28.660Z,2.30
2023-05-06T14:42:55.214Z,2.13
2023-05-06T14:45:21.725Z,2.57
2023-05-06T14:47:48.306Z,1.93
2023-05-06T14:50:14.767Z,1.90
2023-05-06T14:52:41.612Z,1.90
2023-05-06T14:55:09.573Z,1.93
2023-05-06T14:57:36.485Z,1.63
2023-05-06T15:00:09.933Z,2.10
2023-05-06T15:02:40.866Z,2.00
2023-05-06T15:05:09.430Z,2.20
2023-05-06T15:07:36.516Z,2.07
2023-05-06T15:10:04.103Z,1.67
2023-05-06T15:12:30.958Z,2.10
2023-05-06T15:14:57.488Z,1.80
2023-05-06T15:17:24.060Z,1.90
2023-05-06T15:19:50.563Z,1.60
2023-05-06T15:22:17.033Z,2.03
2023-05-06T15:24:44.454Z,1.50
2023-05-06T15:27:10.914Z,1.47
2023-05-06T15:29:38.142Z,2.10
2023-05-06T15:32:04.976Z,1.30
2023-05-06T15:34:31.538Z,1.40
2023-05-06T15:37:01.504Z,1.90
2023-05-06T15:39:28.308Z,1.60
2023-05-06T15:41:54.840Z,1.33
2023-05-06T15:44:21.426Z,1.70
2023-05-06T15:46:47.910Z,1.70
2023-05-06T15:49:45.677Z,1.50
2023-05-06T15:52:01.214Z,1.40
2023-05-06T15:54:28.599Z,1.50
2023-05-06T15:56:56.304Z,1.83
2023-05-06T15:59:22.998Z,1.33
2023-05-06T16:04:19.066Z,2.10
2023-05-06T16:06:45.761Z,1.60
2023-05-06T16:09:12.299Z,1.67
2023-05-06T16:11:39.042Z,1.63
2023-05-06T16:14:05.548Z,1.60
2023-05-06T16:16:32.056Z,2.00
2023-05-06T16:18:58.547Z,1.90
2023-05-06T16:21:25.065Z,1.70
2023-05-06T16:23:51.613Z,1.40
2023-05-06T16:26:18.093Z,1.57
2023-05-06T16:28:44.685Z,1.97
2023-05-06T16:31:11.236Z,1.73
2023-05-06T16:33:37.817Z,1.70
2023-05-06T16:36:04.618Z,2.13
2023-05-06T16:38:31.106Z,1.90
2023-05-06T16:40:57.609Z,2.23
2023-05-06T16:43:24.128Z,2.40
2023-05-06T16:45:50.616Z,2.30
2023-05-06T16:48:17.262Z,1.50
2023-05-06T16:50:43.776Z,1.57
2023-05-06T16:53:10.325Z,1.70
2023-05-06T16:55:36.836Z,1.83
2023-05-06T16:58:04.065Z,1.90
2023-05-06T17:00:31.762Z,2.50
2023-05-06T17:02:58.502Z,1.97
2023-05-06T17:05:25.235Z,2.00
2023-05-06T17:07:51.728Z,1.90
2023-05-06T17:10:18.193Z,1.90
2023-05-06T17:12:44.815Z,1.90
2023-05-06T17:15:11.586Z,1.90
2023-05-06T17:17:39.573Z,1.90
2023-05-06T17:20:07.186Z,1.53
2023-05-06T17:22:33.804Z,1.70
2023-05-06T17:25:00.266Z,2.43
2023-05-06T17:27:26.829Z,1.97
2023-05-06T17:29:53.268Z,2.37
2023-05-06T17:32:19.912Z,1.50
2023-05-06T17:34:46.516Z,1.90
2023-05-06T17:37:13.070Z,2.00
2023-05-06T17:39:39.858Z,2.27
2023-05-06T17:42:06.394Z,1.70
2023-05-06T17:44:35.171Z,1.80
2023-05-06T17:47:01.706Z,2.27
2023-05-06T17:49:28.305Z,1.63
2023-05-06T17:51:55.943Z,2.10
2023-05-06T17:54:22.551Z,1.87
2023-05-06T17:56:52.904Z,2.30
2023-05-06T17:59:19.822Z,2.53
2023-05-06T18:01:46.717Z,1.97
2023-05-06T18:04:13.587Z,2.40
2023-05-06T18:06:41.530Z,2.90
2023-05-06T18:09:08.489Z,2.67
2023-05-06T18:11:37.154Z,2.50
2023-05-06T18:14:04.546Z,2.60
2023-05-06T18:16:31.150Z,2.57
2023-05-06T18:18:57.662Z,2.83
2023-05-06T18:21:24.151Z,2.70
2023-05-06T18:23:53.595Z,2.50
2023-05-06T18:26:39.966Z,2.60
2023-05-06T18:29:10.647Z,2.33
2023-05-06T18:31:37.161Z,2.50
2023-05-06T18:34:03.663Z,2.03
2023-05-06T18:36:30.961Z,2.33
2023-05-06T18:38:57.417Z,1.90
2023-05-06T18:41:24.969Z,2.90
2023-05-06T18:43:51.444Z,2.57
2023-05-06T18:46:18.089Z,2.37
2023-05-06T18:48:44.959Z,2.60
2023-05-06T18:51:16.139Z,2.33
2023-05-06T18:53:42.976Z,2.50
2023-05-06T18:56:09.699Z,3.10
2023-05-06T18:58:38.368Z,2.90
2023-05-06T19:01:06.565Z,3.13
2023-05-06T19:03:34.338Z,3.20
2023-05-06T19:06:02.692Z,3.10
2023-05-06T19:08:29.679Z,3.30
2023-05-06T19:10:56.428Z,3.10
2023-05-06T19:13:23.061Z,3.30
2023-05-06T19:15:49.729Z,3.80
2023-05-06T19:18:16.953Z,4.00
2023-05-06T19:20:43.614Z,3.23
2023-05-06T19:23:10.541Z,3.00
2023-05-06T19:25:38.303Z,3.00
2023-05-06T19:28:06.058Z,3.07
2023-05-06T19:30:33.938Z,3.20
2023-05-06T19:33:01.495Z,3.73
2023-05-06T19:35:28.139Z,3.57
2023-05-06T19:37:54.588Z,3.50
2023-05-06T19:40:21.886Z,3.90
2023-05-06T19:42:48.490Z,3.53
2023-05-06T19:45:16.712Z,4.67
2023-05-06T19:47:45.684Z,3.90
2023-05-06T19:50:13.010Z,4.30
2023-05-06T19:52:39.902Z,3.93
2023-05-06T19:55:06.912Z,4.17
2023-05-06T19:57:33.855Z,4.23
2023-05-06T20:00:05.006Z,4.30
2023-05-06T20:02:32.871Z,4.80
2023-05-06T20:05:07.268Z,3.93
2023-05-06T20:07:33.877Z,4.20
2023-05-06T20:10:00.424Z,4.10
2023-05-06T20:12:27.341Z,4.30
2023-05-06T20:14:56.866Z,4.53
2023-05-06T20:17:23.722Z,4.53
2023-05-06T20:19:50.372Z,5.20
2023-05-06T20:22:16.874Z,4.97
2023-05-06T20:24:43.913Z,5.40
2023-05-06T20:27:10.659Z,4.13
2023-05-06T20:29:37.192Z,4.60
2023-05-06T20:32:03.809Z,4.67
2023-05-06T20:34:30.344Z,4.93
2023-05-06T20:36:56.810Z,4.77
2023-05-06T20:39:23.885Z,4.90
2023-05-06T20:41:50.697Z,4.00
2023-05-06T20:44:17.466Z,4.90
2023-05-06T20:46:44.138Z,6.30
2023-05-06T20:49:11.200Z,6.17
2023-05-06T20:51:37.657Z,5.63
2023-05-06T20:54:04.440Z,5.90
2023-05-06T20:56:31.168Z,5.80
2023-05-06T20:58:57.827Z,6.27
2023-05-06T21:01:25.520Z,5.03
2023-05-06T21:03:52.203Z,6.03
2023-05-06T21:06:19.288Z,6.00
2023-05-06T21:08:46.399Z,5.70
2023-05-06T21:11:13.373Z,5.53
2023-05-06T21:13:40.121Z,5.90
2023-05-06T21:16:06.566Z,7.40
2023-05-06T21:18:33.190Z,6.83
2023-05-06T21:20:59.820Z,8.00
2023-05-06T21:23:26.469Z,6.80
2023-05-06T21:25:53.175Z,6.53
2023-05-06T21:28:19.673Z,5.93
2023-05-06T21:30:46.179Z,7.80
2023-05-06T21:33:12.737Z,7.50
2023-05-06T21:35:39.223Z,7.27
2023-05-06T21:38:06.608Z,6.20
2023-05-06T21:40:33.107Z,7.50
2023-05-06T21:42:59.774Z,6.07
2023-05-06T21:45:26.738Z,6.90
2023-05-06T21:47:53.409Z,5.70
2023-05-06T21:50:20.248Z,6.30
2023-05-06T21:52:46.822Z,6.37
2023-05-06T21:55:13.579Z,6.60
2023-05-06T21:57:40.512Z,6.60
2023-05-06T22:00:11.963Z,5.40
2023-05-06T22:02:39.804Z,7.50
2023-05-06T22:05:07.976Z,6.17
2023-05-06T22:07:35.629Z,5.80
2023-05-06T22:10:02.230Z,5.30
2023-05-06T22:12:28.729Z,5.50
2023-05-06T22:14:55.190Z,5.30
2023-05-06T22:17:22.174Z,5.70
2023-05-06T22:19:48.949Z,7.50
2023-05-06T22:22:16.022Z,5.50
2023-05-06T22:24:42.639Z,6.80
2023-05-06T22:27:09.075Z,5.20
2023-05-06T22:29:35.672Z,5.60
2023-05-06T22:32:02.325Z,6.00
2023-05-06T22:34:28.887Z,6.00
2023-05-06T22:36:58.041Z,5.07
2023-05-06T22:39:24.781Z,6.30
2023-05-06T22:41:52.299Z,5.30
2023-05-06T22:44:18.829Z,5.47
2023-05-06T22:46:45.504Z,5.47
2023-05-06T22:49:11.958Z,5.90
2023-05-06T22:51:38.477Z,6.87
2023-05-06T22:54:05.012Z,7.20
2023-05-06T22:56:31.713Z,6.23
2023-05-06T22:58:58.286Z,6.33
2023-05-06T23:01:26.137Z,6.83
2023-05-06T23:03:53.062Z,5.67
2023-05-06T23:06:19.503Z,6.57
2023-05-06T23:08:46.052Z,7.07
2023-05-06T23:11:12.612Z,6.13
2023-05-06T23:13:39.244Z,7.40
2023-05-06T23:16:07.660Z,7.07
2023-05-06T23:18:34.466Z,7.93
2023-05-06T23:21:00.946Z,7.53
2023-05-06T23:23:29.237Z,6.93
2023-05-06T23:25:56.692Z,6.83
2023-05-06T23:28:23.356Z,7.43
2023-05-06T23:30:49.847Z,6.70
2023-05-06T23:33:16.777Z,7.50
2023-05-06T23:35:43.225Z,7.00
2023-05-06T23:38:09.652Z,7.17
2023-05-06T23:40:36.137Z,8.13
2023-05-06T23:43:02.701Z,7.20
2023-05-06T23:45:29.189Z,7.30
2023-05-06T23:47:56.934Z,7.30
2023-05-06T23:50:23.550Z,7.47
2023-05-06T23:52:50.083Z,6.80
2023-05-06T23:55:16.545Z,8.07
2023-05-06T23:57:43.100Z,7.50
